createdAt,value
2023-03-26T00:02:24.198Z,24.45
2023-03-26T00:04:53.348Z,24.72
2023-03-26T00:07:22.744Z,24.56
2023-03-26T00:09:50.736Z,24.63
2023-03-26T00:12:20.012Z,24.83
2023-03-26T00:14:52.780Z,24.99
2023-03-26T00:17:21.357Z,25.13
2023-03-26T00:19:53.698Z,25.60
2023-03-26T00:22:23.715Z,25.15
2023-03-26T00:24:52.238Z,24.87
2023-03-26T00:27:20.640Z,24.68
2023-03-26T00:29:49.792Z,24.97
2023-03-26T00:32:17.841Z,24.87
2023-03-26T00:34:46.339Z,24.64
2023-03-26T00:37:15.205Z,24.84
2023-03-26T00:39:49.290Z,24.87
2023-03-26T00:42:17.382Z,24.91
2023-03-26T00:44:45.738Z,25.20
2023-03-26T00:47:14.608Z,24.97
2023-03-26T00:49:42.794Z,24.89
2023-03-26T00:52:10.875Z,24.77
2023-03-26T00:54:39.048Z,24.71
2023-03-26T00:57:16.365Z,25.58
2023-03-26T00:59:51.407Z,25.50
2023-03-26T01:02:20.989Z,25.29
2023-03-26T01:04:56.755Z,25.54
2023-03-26T01:07:29.013Z,25.52
2023-03-26T01:09:59.736Z,25.14
2023-03-26T01:12:32.081Z,24.86
2023-03-26T01:15:01.034Z,24.29
2023-03-26T01:17:34.408Z,24.33
2023-03-26T01:20:15.831Z,24.59
2023-03-26T01:22:49.620Z,24.64
2023-03-26T01:25:18.167Z,24.83
2023-03-26T01:27:50.629Z,24.82
2023-03-26T01:30:27.683Z,25.02
2023-03-26T01:33:14.531Z,25.34
2023-03-26T01:36:02.600Z,25.37
2023-03-26T01:38:52.340Z,26.19
2023-03-26T01:41:24.744Z,25.98
2023-03-26T01:44:16.966Z,26.12
2023-03-26T01:46:45.850Z,25.61
2023-03-26T01:49:13.916Z,25.46
2023-03-26T01:51:42.247Z,25.79
2023-03-26T01:54:31.240Z,25.55
2023-03-26T01:57:10.773Z,25.19
2023-03-26T01:59:45.891Z,24.86
2023-03-26T02:02:15.731Z,25.15
2023-03-26T02:05:10.994Z,25.21
2023-03-26T02:08:12.454Z,25.54
2023-03-26T02:10:44.297Z,25.74
2023-03-26T02:13:16.176Z,26.18
2023-03-26T02:16:01.200Z,26.37
2023-03-26T02:18:39.016Z,26.63
2023-03-26T02:21:15.578Z,26.60
2023-03-26T02:23:47.269Z,26.57
2023-03-26T02:26:16.641Z,26.47
2023-03-26T02:28:58.508Z,26.08
2023-03-26T02:31:31.221Z,26.45
2023-03-26T02:33:59.522Z,26.48
2023-03-26T02:36:29.842Z,26.43
2023-03-26T02:39:02.280Z,26.64
2023-03-26T02:41:35.548Z,26.72
2023-03-26T02:44:07.553Z,26.67
2023-03-26T02:46:55.871Z,26.70
2023-03-26T02:49:43.730Z,26.60
2023-03-26T02:52:17.164Z,26.66
2023-03-26T02:54:47.320Z,26.48
2023-03-26T02:57:20.488Z,26.66
2023-03-26T03:00:14.188Z,26.97
2023-03-26T03:03:04.356Z,27.11
2023-03-26T03:05:32.946Z,26.75
2023-03-26T03:08:29.338Z,26.51
2023-03-26T03:11:18.806Z,26.63
2023-03-26T03:13:48.098Z,26.88
2023-03-26T03:16:35.523Z,27.46
2023-03-26T03:19:07.321Z,26.93
2023-03-26T03:21:39.573Z,26.39
2023-03-26T03:24:09.634Z,26.45
2023-03-26T03:26:42.438Z,26.41
2023-03-26T03:29:24.043Z,26.09
2023-03-26T03:31:52.911Z,26.27
2023-03-26T03:34:42.532Z,26.70
2023-03-26T03:37:11.599Z,26.38
2023-03-26T03:39:45.241Z,26.60
2023-03-26T03:42:14.545Z,26.61
2023-03-26T03:44:44.429Z,26.39
2023-03-26T03:47:27.623Z,26.71
2023-03-26T03:49:57.234Z,27.36
2023-03-26T03:52:25.691Z,27.48
2023-03-26T03:54:56.547Z,27.30
2023-03-26T03:57:46.244Z,27.11
2023-03-26T04:00:20.225Z,27.46
2023-03-26T04:02:54.520Z,27.06
2023-03-26T04:05:23.665Z,27.42
2023-03-26T04:07:53.677Z,27.19
2023-03-26T04:10:24.674Z,27.49
2023-03-26T04:13:12.649Z,26.92
2023-03-26T04:15:56.692Z,26.84
2023-03-26T04:18:27.874Z,26.94
2023-03-26T04:21:02.482Z,27.45
2023-03-26T04:23:31.748Z,27.31
2023-03-26T04:26:10.556Z,26.88
2023-03-26T04:29:00.964Z,26.69
2023-03-26T04:34:32.060Z,21.31
2023-03-26T04:37:09.626Z,23.49
2023-03-26T04:39:44.887Z,23.56
2023-03-26T04:42:33.958Z,24.02
2023-03-26T04:45:22.894Z,24.40
2023-03-26T04:47:58.332Z,24.33
2023-03-26T04:50:28.292Z,25.07
2023-03-26T04:52:58.772Z,25.12
2023-03-26T04:55:59.831Z,25.20
2023-03-26T04:58:50.422Z,25.52
2023-03-26T05:01:18.585Z,25.52
2023-03-26T05:03:48.682Z,25.84
2023-03-26T05:06:17.863Z,26.47
2023-03-26T05:08:49.228Z,27.51
2023-03-26T05:11:37.519Z,28.28
2023-03-26T05:14:05.744Z,28.56
2023-03-26T05:16:36.759Z,28.66
2023-03-26T05:19:09.273Z,28.84
2023-03-26T05:21:39.183Z,29.11
2023-03-26T05:24:10.731Z,28.54
2023-03-26T05:26:39.084Z,28.39
2023-03-26T05:29:08.101Z,27.99
2023-03-26T05:31:45.820Z,27.86
2023-03-26T05:34:14.853Z,27.67
2023-03-26T05:36:44.032Z,27.69
2023-03-26T05:39:44.196Z,27.68
2023-03-26T05:42:31.652Z,27.57
2023-03-26T05:45:24.825Z,27.06
2023-03-26T05:47:56.008Z,26.83
2023-03-26T05:50:25.787Z,26.69
2023-03-26T05:52:59.685Z,26.82
2023-03-26T05:56:07.782Z,26.77
2023-03-26T05:58:56.217Z,26.18
2023-03-26T06:01:25.858Z,26.35
2023-03-26T06:04:13.877Z,26.78
2023-03-26T06:06:52.870Z,26.76
2023-03-26T06:09:23.236Z,26.96
2023-03-26T06:11:51.540Z,27.02
2023-03-26T06:14:25.520Z,27.00
2023-03-26T06:17:18.074Z,26.48
2023-03-26T06:20:13.581Z,26.57
2023-03-26T06:22:45.411Z,26.68
2023-03-26T06:25:30.862Z,27.00
2023-03-26T06:28:21.205Z,27.29
2023-03-26T06:31:09.303Z,27.32
2023-03-26T06:33:57.017Z,27.29
2023-03-26T06:36:26.634Z,27.39
2023-03-26T06:38:54.705Z,27.66
2023-03-26T06:41:23.649Z,28.33
2023-03-26T06:44:21.896Z,28.54
2023-03-26T06:46:55.500Z,28.51
2023-03-26T06:49:46.807Z,28.65
2023-03-26T06:52:37.768Z,29.04
2023-03-26T06:55:25.043Z,29.58
2023-03-26T06:58:06.126Z,30.25
2023-03-26T07:00:58.024Z,31.31
2023-03-26T07:03:46.423Z,32.27
2023-03-26T07:06:33.391Z,32.50
2023-03-26T07:09:20.027Z,32.19
2023-03-26T07:12:14.912Z,32.41
2023-03-26T07:15:21.928Z,32.98
2023-03-26T07:18:10.231Z,33.21
2023-03-26T07:20:40.627Z,33.68
2023-03-26T07:23:10.685Z,33.79
2023-03-26T07:25:54.638Z,33.69
2023-03-26T07:29:31.097Z,33.60
2023-03-26T07:32:18.501Z,34.27
2023-03-26T07:35:28.511Z,34.88
2023-03-26T07:39:28.943Z,35.14
2023-03-26T07:42:22.596Z,35.19
2023-03-26T07:45:25.619Z,35.32
2023-03-26T07:48:18.058Z,35.71
2023-03-26T07:51:07.941Z,36.61
2023-03-26T07:54:01.144Z,37.33
2023-03-26T07:56:58.663Z,37.16
2023-03-26T07:59:45.687Z,37.28
2023-03-26T08:02:38.808Z,37.72
2023-03-26T08:05:30.898Z,37.23
2023-03-26T08:08:19.808Z,36.82
2023-03-26T08:11:28.724Z,35.77
2023-03-26T08:14:12.058Z,33.60
2023-03-26T08:16:48.932Z,33.17
2023-03-26T08:19:40.876Z,32.68
2023-03-26T08:22:23.761Z,32.37
2023-03-26T08:25:12.048Z,32.94
2023-03-26T08:28:04.310Z,33.42
2023-03-26T08:30:34.549Z,34.21
2023-03-26T08:33:11.458Z,34.47
2023-03-26T08:35:42.570Z,34.15
2023-03-26T08:38:11.846Z,33.79
2023-03-26T08:41:06.874Z,33.60
2023-03-26T08:44:04.068Z,33.17
2023-03-26T08:46:50.837Z,32.89
2023-03-26T08:49:31.959Z,32.42
2023-03-26T08:52:29.662Z,32.69
2023-03-26T08:55:23.172Z,32.46
2023-03-26T08:58:10.178Z,31.78
2023-03-26T09:01:01.990Z,31.97
2023-03-26T09:03:58.470Z,31.80
2023-03-26T09:06:46.280Z,32.24
2023-03-26T09:09:18.922Z,32.52
2023-03-26T09:12:06.588Z,33.01
2023-03-26T09:14:35.483Z,32.83
2023-03-26T09:17:23.186Z,32.75
2023-03-26T09:20:03.958Z,32.64
2023-03-26T09:22:51.186Z,31.71
2023-03-26T09:25:54.815Z,32.00
2023-03-26T09:28:57.108Z,32.96
2023-03-26T09:32:02.538Z,33.31
2023-03-26T09:34:37.157Z,32.99
2023-03-26T09:37:33.813Z,33.06
2023-03-26T09:40:57.358Z,33.05
2023-03-26T09:43:33.703Z,33.42
2023-03-26T09:46:19.014Z,33.18
2023-03-26T09:49:09.137Z,32.85
2023-03-26T09:51:52.798Z,31.95
2023-03-26T09:54:37.043Z,31.99
2023-03-26T09:57:27.170Z,32.33
2023-03-26T10:00:14.771Z,32.12
2023-03-26T10:03:23.179Z,31.54
2023-03-26T10:06:31.093Z,32.16
2023-03-26T10:09:01.965Z,32.46
2023-03-26T10:11:38.293Z,32.98
2023-03-26T10:14:29.345Z,33.55
2023-03-26T10:17:42.362Z,33.19
2023-03-26T10:20:28.859Z,31.64
2023-03-26T10:23:23.628Z,31.72
2023-03-26T10:26:22.135Z,31.92
2023-03-26T10:28:53.273Z,32.04
2023-03-26T10:31:34.381Z,31.59
2023-03-26T10:34:03.439Z,31.54
2023-03-26T10:36:35.262Z,31.33
2023-03-26T10:39:43.459Z,31.61
2023-03-26T10:42:11.759Z,31.50
2023-03-26T10:45:13.710Z,31.51
2023-03-26T10:47:59.003Z,31.73
2023-03-26T10:50:56.174Z,31.54
2023-03-26T10:53:27.312Z,30.83
2023-03-26T10:55:56.558Z,30.84
2023-03-26T10:58:48.769Z,30.48
2023-03-26T11:01:43.215Z,30.39
2023-03-26T11:04:16.404Z,30.84
2023-03-26T11:07:05.037Z,30.63
2023-03-26T11:09:53.264Z,30.22
2023-03-26T11:12:55.545Z,30.59
2023-03-26T11:16:03.325Z,30.92
2023-03-26T11:18:46.992Z,30.81
2023-03-26T11:21:24.278Z,30.73
2023-03-26T11:24:34.429Z,30.98
2023-03-26T11:27:15.277Z,30.81
2023-03-26T11:30:02.798Z,30.93
2023-03-26T11:32:40.062Z,31.14
2023-03-26T11:35:40.640Z,30.99
2023-03-26T11:38:37.602Z,30.74
2023-03-26T11:41:13.114Z,31.51
2023-03-26T11:43:59.331Z,30.94
2023-03-26T11:46:33.241Z,31.19
2023-03-26T11:49:03.765Z,31.68
2023-03-26T11:51:36.222Z,31.81
2023-03-26T11:54:06.047Z,31.94
2023-03-26T11:57:04.504Z,31.95
2023-03-26T12:00:18.121Z,32.22
2023-03-26T12:02:57.767Z,32.24
2023-03-26T12:05:31.609Z,32.00
2023-03-26T12:08:03.441Z,32.06
2023-03-26T12:10:38.921Z,32.13
2023-03-26T12:13:29.213Z,32.44
2023-03-26T12:16:27.619Z,32.25
2023-03-26T12:19:06.370Z,31.58
2023-03-26T12:22:05.162Z,31.12
2023-03-26T12:24:35.241Z,31.31
2023-03-26T12:27:25.589Z,31.63
2023-03-26T12:30:19.928Z,31.33
2023-03-26T12:33:04.278Z,31.51
2023-03-26T12:35:34.867Z,31.33
2023-03-26T12:38:22.733Z,31.85
2023-03-26T12:41:08.837Z,31.40
2023-03-26T12:44:54.711Z,31.33
2023-03-26T12:47:57.131Z,31.24
2023-03-26T12:49:38.017Z,31.70
2023-03-26T12:52:38.237Z,31.12
2023-03-26T12:55:15.920Z,31.30
2023-03-26T12:58:13.801Z,31.55
2023-03-26T13:01:15.849Z,31.70
2023-03-26T13:03:44.292Z,31.87
2023-03-26T13:06:25.057Z,32.24
2023-03-26T13:09:05.059Z,32.40
2023-03-26T13:11:45.777Z,31.98
2023-03-26T13:14:35.516Z,31.82
2023-03-26T13:17:18.004Z,31.68
2023-03-26T13:20:06.857Z,31.43
2023-03-26T13:23:23.727Z,31.36
2023-03-26T13:26:10.592Z,31.26
2023-03-26T13:29:31.057Z,31.58
2023-03-26T13:32:06.026Z,31.79
2023-03-26T13:35:02.262Z,31.11
2023-03-26T13:37:54.126Z,30.81
2023-03-26T13:40:49.936Z,31.29
2023-03-26T13:43:38.187Z,31.46
2023-03-26T13:46:25.067Z,30.94
2023-03-26T13:48:59.428Z,31.37
2023-03-26T13:51:33.076Z,31.68
2023-03-26T13:54:17.744Z,31.27
2023-03-26T13:56:49.393Z,31.85
2023-03-26T13:59:27.171Z,32.21
2023-03-26T14:02:02.297Z,31.97
2023-03-26T14:04:34.122Z,31.35
2023-03-26T14:07:06.487Z,31.39
2023-03-26T14:10:03.236Z,31.28
2023-03-26T14:12:44.687Z,30.85
2023-03-26T14:15:27.140Z,29.95
2023-03-26T14:18:00.492Z,30.03
2023-03-26T14:20:50.301Z,29.73
2023-03-26T14:23:28.806Z,29.64
2023-03-26T14:26:16.018Z,29.57
2023-03-26T14:29:13.677Z,28.89
2023-03-26T14:31:46.461Z,29.00
2023-03-26T14:34:33.326Z,29.44
2023-03-26T14:37:44.987Z,29.62
2023-03-26T14:40:26.107Z,29.66
2023-03-26T14:43:06.110Z,29.58
2023-03-26T14:46:12.849Z,29.56
2023-03-26T14:48:59.164Z,29.42
2023-03-26T14:51:59.629Z,28.31
2023-03-26T14:54:33.526Z,27.96
2023-03-26T14:57:39.353Z,27.84
2023-03-26T15:00:20.207Z,27.77
2023-03-26T15:03:09.837Z,27.77
2023-03-26T15:05:41.711Z,28.07
2023-03-26T15:08:24.278Z,28.15
2023-03-26T15:11:17.442Z,28.05
2023-03-26T15:14:11.517Z,27.98
2023-03-26T15:17:10.870Z,27.69
2023-03-26T15:20:17.123Z,27.60
2023-03-26T15:23:27.229Z,27.82
2023-03-26T15:26:09.889Z,27.60
2023-03-26T15:28:41.117Z,27.42
2023-03-26T15:31:24.637Z,27.66
2023-03-26T15:34:20.218Z,27.65
2023-03-26T15:37:12.402Z,27.52
2023-03-26T15:39:59.165Z,27.47
2023-03-26T15:42:37.896Z,27.22
2023-03-26T15:45:26.202Z,27.39
2023-03-26T15:48:01.526Z,27.63
2023-03-26T15:51:02.632Z,27.61
2023-03-26T15:53:35.525Z,27.72
2023-03-26T15:56:25.979Z,27.53
2023-03-26T15:59:16.568Z,27.12
2023-03-26T16:01:47.573Z,27.39
2023-03-26T16:04:37.769Z,26.94
2023-03-26T16:07:47.957Z,26.52
2023-03-26T16:10:44.779Z,25.70
2023-03-26T16:13:36.827Z,25.27
2023-03-26T16:16:06.958Z,25.69
2023-03-26T16:18:42.085Z,25.53
2023-03-26T16:21:32.790Z,25.62
2023-03-26T16:24:07.482Z,25.43
2023-03-26T16:26:45.600Z,25.37
2023-03-26T16:29:14.646Z,24.85
2023-03-26T16:32:11.040Z,25.00
2023-03-26T16:34:53.275Z,25.11
2023-03-26T16:37:50.688Z,24.61
2023-03-26T16:40:22.684Z,24.72
2023-03-26T16:43:05.959Z,24.91
2023-03-26T16:45:44.072Z,25.07
2023-03-26T16:51:45.973Z,19.38
2023-03-26T16:54:20.093Z,20.96
2023-03-26T16:57:17.244Z,21.27
2023-03-26T17:00:06.363Z,21.56
2023-03-26T17:02:50.310Z,21.59
2023-03-26T17:05:35.942Z,21.51
2023-03-26T17:08:12.358Z,21.53
2023-03-26T17:10:53.916Z,21.44
2023-03-26T17:13:37.031Z,21.83
2023-03-26T17:16:21.144Z,21.60
2023-03-26T17:19:18.502Z,21.93
2023-03-26T17:22:14.849Z,22.00
2023-03-26T17:24:48.974Z,21.86
2023-03-26T17:27:51.962Z,22.23
2023-03-26T17:30:42.432Z,22.13
2023-03-26T17:33:29.602Z,22.09
2023-03-26T17:36:13.089Z,21.97
2023-03-26T17:38:46.729Z,21.80
2023-03-26T17:41:35.569Z,21.82
2023-03-26T17:44:23.203Z,21.74
2023-03-26T17:46:51.371Z,21.43
2023-03-26T17:49:21.497Z,21.53
2023-03-26T17:52:04.316Z,21.53
2023-03-26T17:54:36.485Z,21.73
2023-03-26T17:57:11.140Z,21.88
2023-03-26T17:59:40.997Z,21.91
2023-03-26T18:02:16.471Z,21.69
2023-03-26T18:04:47.871Z,21.76
2023-03-26T18:08:02.099Z,21.58
2023-03-26T18:10:56.883Z,21.44
2023-03-26T18:13:37.349Z,21.37
2023-03-26T18:16:17.375Z,21.25
2023-03-26T18:18:57.076Z,21.29
2023-03-26T18:21:46.450Z,21.07
2023-03-26T18:24:19.528Z,21.05
2023-03-26T18:27:00.225Z,20.95
2023-03-26T18:29:33.122Z,20.89
2023-03-26T18:32:10.450Z,20.83
2023-03-26T18:34:49.530Z,20.73
2023-03-26T18:37:23.514Z,20.70
2023-03-26T18:40:21.634Z,20.83
2023-03-26T18:42:49.774Z,21.02
2023-03-26T18:45:37.305Z,21.10
2023-03-26T18:48:10.652Z,21.08
2023-03-26T18:50:41.103Z,20.44
2023-03-26T18:53:21.119Z,20.27
2023-03-26T18:55:50.747Z,20.28
2023-03-26T18:58:30.469Z,20.13
2023-03-26T19:01:19.982Z,20.12
2023-03-26T19:03:53.100Z,20.18
2023-03-26T19:06:23.466Z,20.18
2023-03-26T19:08:52.444Z,20.08
2023-03-26T19:11:22.508Z,20.25
2023-03-26T19:14:03.636Z,20.04
2023-03-26T19:16:33.951Z,19.88
2023-03-26T19:19:05.504Z,19.78
2023-03-26T19:21:34.720Z,19.64
2023-03-26T19:24:16.423Z,19.44
2023-03-26T19:26:44.622Z,19.48
2023-03-26T19:29:29.971Z,19.40
2023-03-26T19:32:05.658Z,19.35
2023-03-26T19:34:40.271Z,19.36
2023-03-26T19:37:18.277Z,19.37
2023-03-26T19:39:49.255Z,19.43
2023-03-26T19:42:42.889Z,19.30
2023-03-26T19:45:21.785Z,19.17
2023-03-26T19:48:00.533Z,19.12
2023-03-26T19:50:43.649Z,19.13
2023-03-26T19:53:18.680Z,19.21
2023-03-26T19:55:54.320Z,19.22
2023-03-26T19:58:22.317Z,19.38
2023-03-26T20:00:51.839Z,19.45
2023-03-26T20:03:43.042Z,19.53
2023-03-26T20:06:16.649Z,19.54
2023-03-26T20:08:46.722Z,19.73
2023-03-26T20:11:17.789Z,19.58
2023-03-26T20:13:46.597Z,19.53
2023-03-26T20:16:24.658Z,19.53
2023-03-26T20:18:53.822Z,19.34
2023-03-26T20:21:29.552Z,19.43
2023-03-26T20:23:57.587Z,19.42
2023-03-26T20:26:25.819Z,19.68
2023-03-26T20:28:54.733Z,19.87
2023-03-26T20:31:25.352Z,19.75
2023-03-26T20:33:54.390Z,19.72
2023-03-26T20:36:33.368Z,19.75
2023-03-26T20:39:06.162Z,19.65
2023-03-26T20:41:41.660Z,19.35
2023-03-26T20:44:15.314Z,19.16
2023-03-26T20:46:44.030Z,19.10
2023-03-26T20:49:12.228Z,19.33
2023-03-26T20:51:41.909Z,19.16
2023-03-26T20:54:30.374Z,19.27
2023-03-26T20:56:58.437Z,19.46
2023-03-26T20:59:32.835Z,19.25
2023-03-26T21:02:01.293Z,19.26
2023-03-26T21:04:29.676Z,19.32
2023-03-26T21:07:07.129Z,19.19
2023-03-26T21:09:42.317Z,19.13
2023-03-26T21:12:20.641Z,19.11
2023-03-26T21:14:51.521Z,19.25
2023-03-26T21:17:28.041Z,19.19
2023-03-26T21:19:56.404Z,19.25
2023-03-26T21:22:39.659Z,19.16
2023-03-26T21:25:17.534Z,19.21
2023-03-26T21:28:13.652Z,19.36
2023-03-26T21:30:43.985Z,19.40
2023-03-26T21:33:13.867Z,19.45
2023-03-26T21:35:42.540Z,19.40
2023-03-26T21:38:11.370Z,19.38
2023-03-26T21:40:46.976Z,19.51
2023-03-26T21:43:22.376Z,19.50
2023-03-26T21:45:53.593Z,19.64
2023-03-26T21:48:23.590Z,19.73
2023-03-26T21:50:52.320Z,19.81
2023-03-26T21:53:22.378Z,19.82
2023-03-26T21:55:50.809Z,19.71
2023-03-26T21:58:27.140Z,19.58
2023-03-26T22:01:18.824Z,19.55
2023-03-26T22:03:53.231Z,19.65
2023-03-26T22:06:31.318Z,19.74
2023-03-26T22:09:00.424Z,19.59
2023-03-26T22:11:28.592Z,19.72
2023-03-26T22:14:01.649Z,19.79
2023-03-26T22:16:30.766Z,19.68
2023-03-26T22:18:58.965Z,19.68
2023-03-26T22:21:27.831Z,19.71
2023-03-26T22:23:55.921Z,19.56
2023-03-26T22:26:27.562Z,19.54
2023-03-26T22:28:57.081Z,19.56
2023-03-26T22:31:26.590Z,19.58
2023-03-26T22:33:55.154Z,19.28
2023-03-26T22:36:25.386Z,19.11
2023-03-26T22:38:54.468Z,18.93
2023-03-26T22:41:23.959Z,18.85
2023-03-26T22:43:55.356Z,18.72
2023-03-26T22:46:25.193Z,18.31
2023-03-26T22:48:54.791Z,18.37
2023-03-26T22:51:28.262Z,18.02
2023-03-26T22:53:57.493Z,17.70
2023-03-26T22:56:25.949Z,17.82
2023-03-26T22:58:54.726Z,18.02
2023-03-26T23:01:24.020Z,18.17
2023-03-26T23:03:52.173Z,18.11
2023-03-26T23:06:21.399Z,18.12
2023-03-26T23:08:50.182Z,18.26
2023-03-26T23:11:19.399Z,18.11
2023-03-26T23:13:48.042Z,18.05
2023-03-26T23:16:16.623Z,18.13
2023-03-26T23:18:46.693Z,18.24
2023-03-26T23:21:16.316Z,18.24
2023-03-26T23:23:44.483Z,18.23
2023-03-26T23:26:14.909Z,18.20
2023-03-26T23:28:43.368Z,18.14
2023-03-26T23:31:12.428Z,18.03
2023-03-26T23:33:46.035Z,18.04
2023-03-26T23:36:17.685Z,18.10
2023-03-26T23:38:47.733Z,17.94
2023-03-26T23:41:21.725Z,17.86
2023-03-26T23:43:56.677Z,17.88
2023-03-26T23:46:30.984Z,17.89
2023-03-26T23:49:02.486Z,17.90
2023-03-26T23:51:32.775Z,17.81
2023-03-26T23:54:01.657Z,17.65
2023-03-26T23:56:32.306Z,17.67
2023-03-26T23:59:00.883Z,17.62
